sensor_id;sensor_type;location;lat;lon;timestamp;temperature;humidity
16388;DHT22;8303;53.446;9.988;2022-11-15T05:49:31;5.00;99.90
16388;DHT22;8303;53.446;9.988;2022-11-15T05:51:58;5.10;99.90
16388;DHT22;8303;53.446;9.988;2022-11-15T05:54:25;5.20;99.90
16388;DHT22;8303;53.446;9.988;2022-11-15T05:56:53;5.20;99.90
16388;DHT22;8303;53.446;9.988;2022-11-15T05:59:21;5.30;99.90
16388;DHT22;8303;53.446;9.988;2022-11-15T06:01:52;5.40;99.90
16388;DHT22;8303;53.446;9.988;2022-11-15T06:04:26;5.50;99.90
16388;DHT22;8303;53.446;9.988;2022-11-15T06:06:53;5.50;99.90
16388;DHT22;8303;53.446;9.988;2022-11-15T06:09:20;5.50;99.90
16388;DHT22;8303;53.446;9.988;2022-11-15T06:11:47;5.50;99.90
16388;DHT22;8303;53.446;9.988;2022-11-15T06:14:14;5.60;72.40
16388;DHT22;8303;53.446;9.988;2022-11-15T06:16:41;5.60;7.30
16388;DHT22;8303;53.446;9.988;2022-11-15T06:19:09;5.70;1.10
16388;DHT22;8303;53.446;9.988;2022-11-15T06:21:37;5.80;45.90
16388;DHT22;8303;53.446;9.988;2022-11-15T06:24:05;5.80;73.00
16388;DHT22;8303;53.446;9.988;2022-11-15T06:26:33;5.90;99.90
16388;DHT22;8303;53.446;9.988;2022-11-15T06:29:00;5.90;99.90
16388;DHT22;8303;53.446;9.988;2022-11-15T06:31:29;5.90;73.30
16388;DHT22;8303;53.446;9.988;2022-11-15T06:33:59;6.00;91.20
16388;DHT22;8303;53.446;9.988;2022-11-15T06:36:37;6.00;1.00
16388;DHT22;8303;53.446;9.988;2022-11-15T06:39:07;6.00;1.00
16388;DHT22;8303;53.446;9.988;2022-11-15T06:41:35;6.00;1.00
16388;DHT22;8303;53.446;9.988;2022-11-15T06:44:02;6.10;1.00
16388;DHT22;8303;53.446;9.988;2022-11-15T06:46:29;6.10;1.00
16388;DHT22;8303;53.446;9.988;2022-11-15T06:48:57;6.10;1.00
16388;DHT22;8303;53.446;9.988;2022-11-15T06:51:24;6.10;1.00
16388;DHT22;8303;53.446;9.988;2022-11-15T06:53:52;6.10;1.00
16388;DHT22;8303;53.446;9.988;2022-11-15T06:56:19;6.10;1.00
16388;DHT22;8303;53.446;9.988;2022-11-15T06:58:47;6.10;1.00
16388;DHT22;8303;53.446;9.988;2022-11-15T07:01:14;6.10;1.00
16388;DHT22;8303;53.446;9.988;2022-11-15T07:03:42;6.10;1.00
16388;DHT22;8303;53.446;9.988;2022-11-15T07:06:09;6.10;1.00
16388;DHT22;8303;53.446;9.988;2022-11-15T07:08:37;6.10;1.00
16388;DHT22;8303;53.446;9.988;2022-11-15T07:11:07;6.10;1.00
16388;DHT22;8303;53.446;9.988;2022-11-15T07:13:35;6.20;1.00
16388;DHT22;8303;53.446;9.988;2022-11-15T07:16:03;6.20;1.00
16388;DHT22;8303;53.446;9.988;2022-11-15T07:18:33;6.20;1.00
16388;DHT22;8303;53.446;9.988;2022-11-15T07:21:01;6.30;1.00
16388;DHT22;8303;53.446;9.988;2022-11-15T07:23:29;6.30;1.00
16388;DHT22;8303;53.446;9.988;2022-11-15T07:25:57;6.20;1.00
16388;DHT22;8303;53.446;9.988;2022-11-15T07:28:26;6.30;1.00
16388;DHT22;8303;53.446;9.988;2022-11-15T07:30:54;6.20;1.00
16388;DHT22;8303;53.446;9.988;2022-11-15T07:33:21;6.30;1.00
16388;DHT22;8303;53.446;9.988;2022-11-15T07:35:48;6.30;1.00
16388;DHT22;8303;53.446;9.988;2022-11-15T07:38:16;6.40;1.00
16388;DHT22;8303;53.446;9.988;2022-11-15T07:40:46;6.50;1.00
16388;DHT22;8303;53.446;9.988;2022-11-15T07:43:14;6.60;1.00
16388;DHT22;8303;53.446;9.988;2022-11-15T07:45:46;6.60;1.00
16388;DHT22;8303;53.446;9.988;2022-11-15T07:48:14;6.60;1.00
16388;DHT22;8303;53.446;9.988;2022-11-15T07:50:44;6.60;1.00
16388;DHT22;8303;53.446;9.988;2022-11-15T07:53:11;6.60;1.00
16388;DHT22;8303;53.446;9.988;2022-11-15T07:55:40;6.60;1.00
16388;DHT22;8303;53.446;9.988;2022-11-15T07:58:12;6.60;1.00
16388;DHT22;8303;53.446;9.988;2022-11-15T08:00:39;6.70;1.00
16388;DHT22;8303;53.446;9.988;2022-11-15T08:03:10;6.50;1.00
16388;DHT22;8303;53.446;9.988;2022-11-15T08:05:39;6.70;1.00
16388;DHT22;8303;53.446;9.988;2022-11-15T08:08:07;6.70;1.00
16388;DHT22;8303;53.446;9.988;2022-11-15T08:10:38;6.80;1.00
16388;DHT22;8303;53.446;9.988;2022-11-15T08:13:10;6.80;1.00
16388;DHT22;8303;53.446;9.988;2022-11-15T08:15:39;6.90;1.00
16388;DHT22;8303;53.446;9.988;2022-11-15T08:18:11;6.90;1.00
16388;DHT22;8303;53.446;9.988;2022-11-15T08:20:38;6.90;1.00
16388;DHT22;8303;53.446;9.988;2022-11-15T08:23:06;6.80;99.90
16388;DHT22;8303;53.446;9.988;2022-11-15T08:25:34;6.90;99.90
16388;DHT22;8303;53.446;9.988;2022-11-15T08:28:04;6.80;99.90
16388;DHT22;8303;53.446;9.988;2022-11-15T08:30:35;6.80;99.90
16388;DHT22;8303;53.446;9.988;2022-11-15T08:33:03;6.80;99.90
16388;DHT22;8303;53.446;9.988;2022-11-15T08:35:32;6.90;99.90
16388;DHT22;8303;53.446;9.988;2022-11-15T08:37:59;7.00;99.90
16388;DHT22;8303;53.446;9.988;2022-11-15T08:40:29;7.10;99.90
16388;DHT22;8303;53.446;9.988;2022-11-15T08:42:56;7.10;99.90
16388;DHT22;8303;53.446;9.988;2022-11-15T08:45:24;7.10;99.90
16388;DHT22;8303;53.446;9.988;2022-11-15T08:47:51;7.20;99.90
16388;DHT22;8303;53.446;9.988;2022-11-15T08:50:18;7.30;99.90
16388;DHT22;8303;53.446;9.988;2022-11-15T08:52:51;7.50;99.90
16388;DHT22;8303;53.446;9.988;2022-11-15T08:55:20;7.80;99.90
16388;DHT22;8303;53.446;9.988;2022-11-15T08:57:47;7.90;99.90
16388;DHT22;8303;53.446;9.988;2022-11-15T09:00:16;8.00;9.60
16388;DHT22;8303;53.446;9.988;2022-11-15T09:02:45;8.10;2.80
16388;DHT22;8303;53.446;9.988;2022-11-15T09:05:13;8.10;1.00
16388;DHT22;8303;53.446;9.988;2022-11-15T09:07:45;8.20;1.00
16388;DHT22;8303;53.446;9.988;2022-11-15T09:10:14;8.20;1.00
16388;DHT22;8303;53.446;9.988;2022-11-15T09:12:44;8.20;1.00
16388;DHT22;8303;53.446;9.988;2022-11-15T09:15:15;8.10;1.00
16388;DHT22;8303;53.446;9.988;2022-11-15T09:17:42;8.30;1.00
16388;DHT22;8303;53.446;9.988;2022-11-15T09:20:13;8.50;1.00
16388;DHT22;8303;53.446;9.988;2022-11-15T09:22:40;8.60;1.00
16388;DHT22;8303;53.446;9.988;2022-11-15T09:25:08;8.60;1.00
16388;DHT22;8303;53.446;9.988;2022-11-15T09:27:39;8.80;1.00
16388;DHT22;8303;53.446;9.988;2022-11-15T09:30:08;8.80;1.00
16388;DHT22;8303;53.446;9.988;2022-11-15T09:32:36;8.70;1.00
16388;DHT22;8303;53.446;9.988;2022-11-15T09:35:04;8.70;1.00
16388;DHT22;8303;53.446;9.988;2022-11-15T09:37:31;8.80;1.00
16388;DHT22;8303;53.446;9.988;2022-11-15T09:39:59;8.80;1.00
16388;DHT22;8303;53.446;9.988;2022-11-15T09:42:44;8.80;1.00
16388;DHT22;8303;53.446;9.988;2022-11-15T09:45:18;8.90;1.00
16388;DHT22;8303;53.446;9.988;2022-11-15T09:48:12;9.00;1.00
16388;DHT22;8303;53.446;9.988;2022-11-15T09:50:47;9.10;1.00
16388;DHT22;8303;53.446;9.988;2022-11-15T09:53:31;9.10;1.00
16388;DHT22;8303;53.446;9.988;2022-11-15T09:56:03;9.20;1.00
16388;DHT22;8303;53.446;9.988;2022-11-15T09:58:36;9.30;1.00
16388;DHT22;8303;53.446;9.988;2022-11-15T10:01:11;9.30;1.00
16388;DHT22;8303;53.446;9.988;2022-11-15T10:03:40;9.40;1.00
16388;DHT22;8303;53.446;9.988;2022-11-15T10:06:13;9.40;1.00
16388;DHT22;8303;53.446;9.988;2022-11-15T10:09:04;9.50;1.00
16388;DHT22;8303;53.446;9.988;2022-11-15T10:11:35;9.50;1.00
16388;DHT22;8303;53.446;9.988;2022-11-15T10:14:10;9.50;1.00
16388;DHT22;8303;53.446;9.988;2022-11-15T10:19:52;9.50;1.00
16388;DHT22;8303;53.446;9.988;2022-11-15T10:22:34;9.60;1.00
16388;DHT22;8303;53.446;9.988;2022-11-15T10:25:19;9.70;1.00
16388;DHT22;8303;53.446;9.988;2022-11-15T10:27:52;9.80;1.00
16388;DHT22;8303;53.446;9.988;2022-11-15T10:30:23;10.00;1.00
16388;DHT22;8303;53.446;9.988;2022-11-15T10:32:50;10.10;1.00
16388;DHT22;8303;53.446;9.988;2022-11-15T10:35:29;10.20;1.00
16388;DHT22;8303;53.446;9.988;2022-11-15T10:38:05;10.40;1.00
16388;DHT22;8303;53.446;9.988;2022-11-15T10:40:33;10.40;1.00
16388;DHT22;8303;53.446;9.988;2022-11-15T10:43:13;10.50;1.00
16388;DHT22;8303;53.446;9.988;2022-11-15T10:45:44;10.60;1.00
16388;DHT22;8303;53.446;9.988;2022-11-15T10:48:25;10.60;1.00
16388;DHT22;8303;53.446;9.988;2022-11-15T10:50:53;10.60;1.00
16388;DHT22;8303;53.446;9.988;2022-11-15T10:53:28;10.70;1.00
16388;DHT22;8303;53.446;9.988;2022-11-15T10:56:00;10.70;1.00
16388;DHT22;8303;53.446;9.988;2022-11-15T10:58:35;10.80;1.00
16388;DHT22;8303;53.446;9.988;2022-11-15T11:01:12;10.80;1.00
16388;DHT22;8303;53.446;9.988;2022-11-15T11:03:40;10.90;1.00
16388;DHT22;8303;53.446;9.988;2022-11-15T11:06:10;11.00;1.00
16388;DHT22;8303;53.446;9.988;2022-11-15T11:08:38;11.10;1.00
16388;DHT22;8303;53.446;9.988;2022-11-15T11:11:08;11.10;1.00
16388;DHT22;8303;53.446;9.988;2022-11-15T11:13:37;11.10;99.90
16388;DHT22;8303;53.446;9.988;2022-11-15T11:16:26;11.20;99.90
16388;DHT22;8303;53.446;9.988;2022-11-15T11:19:05;11.20;99.90
16388;DHT22;8303;53.446;9.988;2022-11-15T11:21:41;11.20;99.90
16388;DHT22;8303;53.446;9.988;2022-11-15T11:24:16;11.30;99.90
16388;DHT22;8303;53.446;9.988;2022-11-15T11:26:54;11.20;99.90
16388;DHT22;8303;53.446;9.988;2022-11-15T11:29:34;11.10;99.90
16388;DHT22;8303;53.446;9.988;2022-11-15T11:32:23;11.00;1.00
16388;DHT22;8303;53.446;9.988;2022-11-15T11:35:03;10.90;1.00
16388;DHT22;8303;53.446;9.988;2022-11-15T11:37:37;10.90;1.00
16388;DHT22;8303;53.446;9.988;2022-11-15T11:40:16;10.90;1.00
16388;DHT22;8303;53.446;9.988;2022-11-15T11:42:53;10.80;99.90
16388;DHT22;8303;53.446;9.988;2022-11-15T11:45:42;10.80;99.90
16388;DHT22;8303;53.446;9.988;2022-11-15T11:48:20;10.70;99.90
16388;DHT22;8303;53.446;9.988;2022-11-15T11:50:48;10.90;99.90
16388;DHT22;8303;53.446;9.988;2022-11-15T11:53:22;11.00;99.90
16388;DHT22;8303;53.446;9.988;2022-11-15T11:55:58;11.20;99.90
16388;DHT22;8303;53.446;9.988;2022-11-15T11:58:40;11.10;99.90
16388;DHT22;8303;53.446;9.988;2022-11-15T12:01:12;11.10;99.90
16388;DHT22;8303;53.446;9.988;2022-11-15T12:03:45;11.20;99.90
16388;DHT22;8303;53.446;9.988;2022-11-15T12:06:21;11.20;99.90
16388;DHT22;8303;53.446;9.988;2022-11-15T12:08:53;11.30;99.90
16388;DHT22;8303;53.446;9.988;2022-11-15T12:11:29;11.30;99.90
16388;DHT22;8303;53.446;9.988;2022-11-15T12:14:00;11.20;99.90
16388;DHT22;8303;53.446;9.988;2022-11-15T12:16:29;11.20;99.90
16388;DHT22;8303;53.446;9.988;2022-11-15T12:19:00;11.30;99.90
16388;DHT22;8303;53.446;9.988;2022-11-15T12:21:34;11.30;99.90
16388;DHT22;8303;53.446;9.988;2022-11-15T12:24:05;11.30;99.90
16388;DHT22;8303;53.446;9.988;2022-11-15T12:26:37;11.30;99.90
16388;DHT22;8303;53.446;9.988;2022-11-15T12:29:11;11.30;99.90
16388;DHT22;8303;53.446;9.988;2022-11-15T12:31:44;11.30;99.90
16388;DHT22;8303;53.446;9.988;2022-11-15T12:34:35;11.40;99.90
16388;DHT22;8303;53.446;9.988;2022-11-15T12:40:37;11.60;99.90
16388;DHT22;8303;53.446;9.988;2022-11-15T12:46:19;11.50;99.90
16388;DHT22;8303;53.446;9.988;2022-11-15T12:48:55;11.60;99.90
16388;DHT22;8303;53.446;9.988;2022-11-15T12:57:52;11.70;99.90
16388;DHT22;8303;53.446;9.988;2022-11-15T13:00:43;11.80;99.90
16388;DHT22;8303;53.446;9.988;2022-11-15T13:03:19;11.80;99.90
16388;DHT22;8303;53.446;9.988;2022-11-15T13:06:08;11.70;99.90
16388;DHT22;8303;53.446;9.988;2022-11-15T13:08:41;11.70;99.90
16388;DHT22;8303;53.446;9.988;2022-11-15T13:11:44;11.70;99.90
16388;DHT22;8303;53.446;9.988;2022-11-15T13:17:34;11.60;99.90
16388;DHT22;8303;53.446;9.988;2022-11-15T13:20:21;11.60;99.90
16388;DHT22;8303;53.446;9.988;2022-11-15T13:22:50;11.60;99.90
16388;DHT22;8303;53.446;9.988;2022-11-15T13:25:19;11.60;99.90
16388;DHT22;8303;53.446;9.988;2022-11-15T13:27:50;11.60;99.90
16388;DHT22;8303;53.446;9.988;2022-11-15T13:30:21;11.60;99.90
16388;DHT22;8303;53.446;9.988;2022-11-15T13:32:50;11.60;99.90
16388;DHT22;8303;53.446;9.988;2022-11-15T13:35:22;11.60;99.90
16388;DHT22;8303;53.446;9.988;2022-11-15T13:37:50;11.60;99.90
16388;DHT22;8303;53.446;9.988;2022-11-15T13:40:23;11.60;99.90
16388;DHT22;8303;53.446;9.988;2022-11-15T13:42:53;11.70;99.90
16388;DHT22;8303;53.446;9.988;2022-11-15T13:45:20;11.60;99.90
16388;DHT22;8303;53.446;9.988;2022-11-15T13:47:56;11.70;1.00
16388;DHT22;8303;53.446;9.988;2022-11-15T13:50:27;11.70;1.00
16388;DHT22;8303;53.446;9.988;2022-11-15T13:52:58;11.80;1.00
16388;DHT22;8303;53.446;9.988;2022-11-15T13:55:27;11.90;1.00
16388;DHT22;8303;53.446;9.988;2022-11-15T13:57:56;11.80;99.90
16388;DHT22;8303;53.446;9.988;2022-11-15T14:00:33;11.90;99.90
16388;DHT22;8303;53.446;9.988;2022-11-15T14:03:23;12.00;1.00
16388;DHT22;8303;53.446;9.988;2022-11-15T14:06:03;12.00;99.90
16388;DHT22;8303;53.446;9.988;2022-11-15T14:08:32;12.00;99.90
16388;DHT22;8303;53.446;9.988;2022-11-15T14:11:07;12.10;99.90
16388;DHT22;8303;53.446;9.988;2022-11-15T14:13:35;12.10;99.90
16388;DHT22;8303;53.446;9.988;2022-11-15T14:16:13;12.10;99.90
16388;DHT22;8303;53.446;9.988;2022-11-15T14:18:44;12.10;99.90
16388;DHT22;8303;53.446;9.988;2022-11-15T14:21:12;12.00;99.90
16388;DHT22;8303;53.446;9.988;2022-11-15T14:23:39;12.00;99.90
16388;DHT22;8303;53.446;9.988;2022-11-15T14:26:25;11.90;1.00
16388;DHT22;8303;53.446;9.988;2022-11-15T14:28:52;11.90;1.00
16388;DHT22;8303;53.446;9.988;2022-11-15T14:31:19;11.90;1.00
16388;DHT22;8303;53.446;9.988;2022-11-15T14:33:49;11.90;1.00
16388;DHT22;8303;53.446;9.988;2022-11-15T14:36:17;11.80;1.00
16388;DHT22;8303;53.446;9.988;2022-11-15T14:38:45;11.80;1.00
16388;DHT22;8303;53.446;9.988;2022-11-15T14:41:19;11.70;1.00
16388;DHT22;8303;53.446;9.988;2022-11-15T14:43:46;11.70;1.00
16388;DHT22;8303;53.446;9.988;2022-11-15T14:46:13;12.00;1.00
16388;DHT22;8303;53.446;9.988;2022-11-15T14:48:40;12.10;1.00
16388;DHT22;8303;53.446;9.988;2022-11-15T14:51:15;11.90;1.00
16388;DHT22;8303;53.446;9.988;2022-11-15T14:53:43;11.70;1.00
16388;DHT22;8303;53.446;9.988;2022-11-15T14:56:11;11.50;1.00
16388;DHT22;8303;53.446;9.988;2022-11-15T14:58:38;11.40;1.00
16388;DHT22;8303;53.446;9.988;2022-11-15T15:01:12;11.30;1.00
16388;DHT22;8303;53.446;9.988;2022-11-15T15:03:39;11.20;1.00
16388;DHT22;8303;53.446;9.988;2022-11-15T15:06:06;11.20;1.00
16388;DHT22;8303;53.446;9.988;2022-11-15T15:08:36;11.10;1.00
16388;DHT22;8303;53.446;9.988;2022-11-15T15:11:08;11.00;1.00
16388;DHT22;8303;53.446;9.988;2022-11-15T15:13:37;10.90;1.00
16388;DHT22;8303;53.446;9.988;2022-11-15T15:16:04;10.80;1.00
16388;DHT22;8303;53.446;9.988;2022-11-15T15:18:31;10.70;1.00
16388;DHT22;8303;53.446;9.988;2022-11-15T15:20:59;10.60;1.00
16388;DHT22;8303;53.446;9.988;2022-11-15T15:23:32;10.50;1.00
16388;DHT22;8303;53.446;9.988;2022-11-15T15:26:02;10.40;1.00
16388;DHT22;8303;53.446;9.988;2022-11-15T15:28:30;10.30;1.00
16388;DHT22;8303;53.446;9.988;2022-11-15T15:30:57;10.20;1.00
16388;DHT22;8303;53.446;9.988;2022-11-15T15:33:23;10.20;1.00
16388;DHT22;8303;53.446;9.988;2022-11-15T15:35:50;10.10;1.00
16388;DHT22;8303;53.446;9.988;2022-11-15T15:38:18;10.00;1.00
16388;DHT22;8303;53.446;9.988;2022-11-15T15:40:45;9.90;1.00
16388;DHT22;8303;53.446;9.988;2022-11-15T15:43:13;9.90;33.40
16388;DHT22;8303;53.446;9.988;2022-11-15T15:45:41;9.90;65.20
16388;DHT22;8303;53.446;9.988;2022-11-15T15:48:11;9.80;64.60
16388;DHT22;8303;53.446;9.988;2022-11-15T15:50:39;9.70;99.90
16388;DHT22;8303;53.446;9.988;2022-11-15T15:53:09;9.70;99.90
16388;DHT22;8303;53.446;9.988;2022-11-15T15:55:37;9.60;99.90
16388;DHT22;8303;53.446;9.988;2022-11-15T15:58:04;9.60;99.90
16388;DHT22;8303;53.446;9.988;2022-11-15T16:00:33;9.60;99.90
16388;DHT22;8303;53.446;9.988;2022-11-15T16:03:00;9.60;99.90
16388;DHT22;8303;53.446;9.988;2022-11-15T16:05:27;9.60;99.90
16388;DHT22;8303;53.446;9.988;2022-11-15T16:07:54;9.60;99.90
16388;DHT22;8303;53.446;9.988;2022-11-15T16:10:22;9.60;99.90
16388;DHT22;8303;53.446;9.988;2022-11-15T16:12:51;9.70;99.90
16388;DHT22;8303;53.446;9.988;2022-11-15T16:15:20;9.70;99.90
16388;DHT22;8303;53.446;9.988;2022-11-15T16:17:50;9.80;99.90
16388;DHT22;8303;53.446;9.988;2022-11-15T16:20:36;9.80;99.90
16388;DHT22;8303;53.446;9.988;2022-11-15T16:23:06;9.80;99.90
16388;DHT22;8303;53.446;9.988;2022-11-15T16:25:37;9.70;99.90
16388;DHT22;8303;53.446;9.988;2022-11-15T16:28:05;9.70;99.90
16388;DHT22;8303;53.446;9.988;2022-11-15T16:30:32;9.60;99.90
16388;DHT22;8303;53.446;9.988;2022-11-15T16:33:00;9.60;99.90
16388;DHT22;8303;53.446;9.988;2022-11-15T16:35:27;9.60;99.90
16388;DHT22;8303;53.446;9.988;2022-11-15T16:37:54;9.60;99.90
16388;DHT22;8303;53.446;9.988;2022-11-15T16:40:26;9.60;99.90
16388;DHT22;8303;53.446;9.988;2022-11-15T16:42:55;9.60;99.90
16388;DHT22;8303;53.446;9.988;2022-11-15T16:45:22;9.60;99.90
16388;DHT22;8303;53.446;9.988;2022-11-15T16:47:49;9.60;99.90
16388;DHT22;8303;53.446;9.988;2022-11-15T16:50:22;9.50;99.90
16388;DHT22;8303;53.446;9.988;2022-11-15T16:52:53;9.50;99.90
16388;DHT22;8303;53.446;9.988;2022-11-15T16:55:22;9.40;99.90
16388;DHT22;8303;53.446;9.988;2022-11-15T16:57:49;9.40;99.90
16388;DHT22;8303;53.446;9.988;2022-11-15T17:00:18;9.40;99.90
16388;DHT22;8303;53.446;9.988;2022-11-15T17:02:46;9.30;99.90
16388;DHT22;8303;53.446;9.988;2022-11-15T17:05:14;9.30;99.90
16388;DHT22;8303;53.446;9.988;2022-11-15T17:07:45;9.30;99.90
16388;DHT22;8303;53.446;9.988;2022-11-15T17:10:13;9.20;99.90
16388;DHT22;8303;53.446;9.988;2022-11-15T17:12:40;9.20;99.90
16388;DHT22;8303;53.446;9.988;2022-11-15T17:15:10;9.20;99.90
16388;DHT22;8303;53.446;9.988;2022-11-15T17:17:38;9.20;99.90
16388;DHT22;8303;53.446;9.988;2022-11-15T17:20:06;9.20;99.90
16388;DHT22;8303;53.446;9.988;2022-11-15T17:22:35;9.20;99.90
16388;DHT22;8303;53.446;9.988;2022-11-15T17:25:03;9.20;99.90
16388;DHT22;8303;53.446;9.988;2022-11-15T17:27:30;9.20;99.90
16388;DHT22;8303;53.446;9.988;2022-11-15T17:29:57;9.10;99.90
16388;DHT22;8303;53.446;9.988;2022-11-15T17:32:24;9.10;99.90
16388;DHT22;8303;53.446;9.988;2022-11-15T17:34:51;9.10;99.90
16388;DHT22;8303;53.446;9.988;2022-11-15T17:37:18;9.00;99.90
16388;DHT22;8303;53.446;9.988;2022-11-15T17:39:45;9.00;99.90
16388;DHT22;8303;53.446;9.988;2022-11-15T17:42:13;9.00;1.00
16388;DHT22;8303;53.446;9.988;2022-11-15T17:44:40;9.00;1.00
16388;DHT22;8303;53.446;9.988;2022-11-15T17:47:07;9.00;1.00
16388;DHT22;8303;53.446;9.988;2022-11-15T17:49:34;9.00;1.00
16388;DHT22;8303;53.446;9.988;2022-11-15T17:52:04;9.00;1.00
16388;DHT22;8303;53.446;9.988;2022-11-15T17:54:31;9.00;1.00
16388;DHT22;8303;53.446;9.988;2022-11-15T17:56:58;9.10;1.00
16388;DHT22;8303;53.446;9.988;2022-11-15T17:59:26;9.10;1.00
16388;DHT22;8303;53.446;9.988;2022-11-15T18:01:53;9.20;1.00
16388;DHT22;8303;53.446;9.988;2022-11-15T18:04:20;9.20;1.00
16388;DHT22;8303;53.446;9.988;2022-11-15T18:06:53;9.30;1.00
16388;DHT22;8303;53.446;9.988;2022-11-15T18:09:20;9.30;1.00
16388;DHT22;8303;53.446;9.988;2022-11-15T18:11:47;9.30;1.00
16388;DHT22;8303;53.446;9.988;2022-11-15T18:14:17;9.40;1.00
16388;DHT22;8303;53.446;9.988;2022-11-15T18:16:45;9.40;1.00
16388;DHT22;8303;53.446;9.988;2022-11-15T18:19:12;9.40;1.00
16388;DHT22;8303;53.446;9.988;2022-11-15T18:21:41;9.40;1.00
16388;DHT22;8303;53.446;9.988;2022-11-15T18:24:27;9.40;1.00
16388;DHT22;8303;53.446;9.988;2022-11-15T18:26:54;9.40;1.00
16388;DHT22;8303;53.446;9.988;2022-11-15T18:29:21;9.40;1.00
16388;DHT22;8303;53.446;9.988;2022-11-15T18:31:51;9.40;1.00
16388;DHT22;8303;53.446;9.988;2022-11-15T18:34:21;9.40;1.00
16388;DHT22;8303;53.446;9.988;2022-11-15T18:36:49;9.40;1.00
16388;DHT22;8303;53.446;9.988;2022-11-15T18:39:17;9.30;1.00
16388;DHT22;8303;53.446;9.988;2022-11-15T18:41:45;9.20;1.00
16388;DHT22;8303;53.446;9.988;2022-11-15T18:44:12;9.10;1.00
16388;DHT22;8303;53.446;9.988;2022-11-15T18:46:39;9.10;1.00
16388;DHT22;8303;53.446;9.988;2022-11-15T18:49:11;9.00;1.00
16388;DHT22;8303;53.446;9.988;2022-11-15T18:51:38;9.00;1.00
16388;DHT22;8303;53.446;9.988;2022-11-15T18:54:08;9.00;1.00
16388;DHT22;8303;53.446;9.988;2022-11-15T18:56:35;9.00;1.00
16388;DHT22;8303;53.446;9.988;2022-11-15T18:59:03;9.00;1.00
16388;DHT22;8303;53.446;9.988;2022-11-15T19:01:31;9.00;1.00
16388;DHT22;8303;53.446;9.988;2022-11-15T19:04:02;9.00;1.00
16388;DHT22;8303;53.446;9.988;2022-11-15T19:06:31;9.00;1.00
16388;DHT22;8303;53.446;9.988;2022-11-15T19:08:59;8.90;1.00
16388;DHT22;8303;53.446;9.988;2022-11-15T19:11:27;8.90;1.00
16388;DHT22;8303;53.446;9.988;2022-11-15T19:13:56;8.90;1.00
16388;DHT22;8303;53.446;9.988;2022-11-15T19:16:24;8.90;1.00
16388;DHT22;8303;53.446;9.988;2022-11-15T19:18:52;8.80;1.00
16388;DHT22;8303;53.446;9.988;2022-11-15T19:21:19;8.90;1.00
16388;DHT22;8303;53.446;9.988;2022-11-15T19:23:48;8.90;1.00
16388;DHT22;8303;53.446;9.988;2022-11-15T19:26:15;8.90;1.00
16388;DHT22;8303;53.446;9.988;2022-11-15T19:28:43;8.90;1.00
16388;DHT22;8303;53.446;9.988;2022-11-15T19:31:12;8.90;1.00
16388;DHT22;8303;53.446;9.988;2022-11-15T19:33:41;9.00;1.00
16388;DHT22;8303;53.446;9.988;2022-11-15T19:36:12;9.00;1.00
16388;DHT22;8303;53.446;9.988;2022-11-15T19:38:39;9.10;1.00
16388;DHT22;8303;53.446;9.988;2022-11-15T19:41:11;9.20;1.00
16388;DHT22;8303;53.446;9.988;2022-11-15T19:43:38;9.20;1.00
16388;DHT22;8303;53.446;9.988;2022-11-15T19:46:06;9.30;1.00
16388;DHT22;8303;53.446;9.988;2022-11-15T19:48:34;9.30;1.00
16388;DHT22;8303;53.446;9.988;2022-11-15T19:51:03;9.40;1.00
16388;DHT22;8303;53.446;9.988;2022-11-15T19:53:31;9.40;1.00
16388;DHT22;8303;53.446;9.988;2022-11-15T19:56:00;9.40;1.00
16388;DHT22;8303;53.446;9.988;2022-11-15T19:58:28;9.50;1.00
16388;DHT22;8303;53.446;9.988;2022-11-15T20:00:59;9.50;1.00
16388;DHT22;8303;53.446;9.988;2022-11-15T20:03:27;9.50;1.00
16388;DHT22;8303;53.446;9.988;2022-11-15T20:06:00;9.60;1.00
16388;DHT22;8303;53.446;9.988;2022-11-15T20:08:27;9.60;1.00
16388;DHT22;8303;53.446;9.988;2022-11-15T20:10:54;9.60;1.00
16388;DHT22;8303;53.446;9.988;2022-11-15T20:13:21;9.60;1.00
16388;DHT22;8303;53.446;9.988;2022-11-15T20:15:49;9.60;1.00
16388;DHT22;8303;53.446;9.988;2022-11-15T20:18:17;9.60;1.00
16388;DHT22;8303;53.446;9.988;2022-11-15T20:20:44;9.60;1.00
16388;DHT22;8303;53.446;9.988;2022-11-15T20:23:11;9.70;1.00
16388;DHT22;8303;53.446;9.988;2022-11-15T20:25:38;9.70;1.00
16388;DHT22;8303;53.446;9.988;2022-11-15T20:28:06;9.70;1.00
16388;DHT22;8303;53.446;9.988;2022-11-15T20:30:35;9.70;1.00
16388;DHT22;8303;53.446;9.988;2022-11-15T20:33:04;9.80;1.00
16388;DHT22;8303;53.446;9.988;2022-11-15T20:35:31;9.80;1.00
16388;DHT22;8303;53.446;9.988;2022-11-15T20:37:57;9.80;1.00
16388;DHT22;8303;53.446;9.988;2022-11-15T20:40:24;9.80;1.00
16388;DHT22;8303;53.446;9.988;2022-11-15T20:42:51;9.80;1.00
16388;DHT22;8303;53.446;9.988;2022-11-15T20:45:19;9.80;1.00
16388;DHT22;8303;53.446;9.988;2022-11-15T20:47:45;9.80;1.00
16388;DHT22;8303;53.446;9.988;2022-11-15T20:50:14;9.80;99.90
16388;DHT22;8303;53.446;9.988;2022-11-15T20:52:41;9.80;99.90
16388;DHT22;8303;53.446;9.988;2022-11-15T20:55:08;9.70;99.90
16388;DHT22;8303;53.446;9.988;2022-11-15T20:57:35;9.70;99.90
16388;DHT22;8303;53.446;9.988;2022-11-15T21:00:03;9.70;99.90
16388;DHT22;8303;53.446;9.988;2022-11-15T21:02:30;9.70;99.90
16388;DHT22;8303;53.446;9.988;2022-11-15T21:04:57;9.60;99.90
16388;DHT22;8303;53.446;9.988;2022-11-15T21:07:26;9.60;99.90
16388;DHT22;8303;53.446;9.988;2022-11-15T21:09:53;9.60;99.90
16388;DHT22;8303;53.446;9.988;2022-11-15T21:12:37;9.60;99.90
16388;DHT22;8303;53.446;9.988;2022-11-15T21:15:05;9.60;99.90
16388;DHT22;8303;53.446;9.988;2022-11-15T21:17:32;9.60;99.90
16388;DHT22;8303;53.446;9.988;2022-11-15T21:19:59;9.60;99.90
16388;DHT22;8303;53.446;9.988;2022-11-15T21:22:28;9.60;99.90
16388;DHT22;8303;53.446;9.988;2022-11-15T21:24:55;9.60;99.90
16388;DHT22;8303;53.446;9.988;2022-11-15T21:27:23;9.60;99.90
16388;DHT22;8303;53.446;9.988;2022-11-15T21:29:50;9.60;99.90
